createdAt,value
2023-02-16T00:02:10.789Z,11.33
2023-02-16T00:04:37.911Z,15.33
2023-02-16T00:07:04.926Z,13.00
2023-02-16T00:09:31.873Z,9.67
2023-02-16T00:12:17.845Z,13.00
2023-02-16T00:14:44.841Z,16.67
2023-02-16T00:17:12.056Z,21.33
2023-02-16T00:19:40.831Z,18.67
2023-02-16T00:22:08.790Z,15.33
2023-02-16T00:24:35.851Z,17.33
2023-02-16T00:27:03.347Z,8.33
2023-02-16T00:29:36.893Z,6.00
2023-02-16T00:32:06.009Z,10.33
2023-02-16T00:34:38.150Z,9.00
2023-02-16T00:37:08.209Z,5.00
2023-02-16T00:39:36.161Z,11.00
2023-02-16T00:42:06.191Z,8.00
2023-02-16T00:44:45.103Z,8.67
2023-02-16T00:47:35.157Z,8.00
2023-02-16T00:50:02.109Z,8.00
2023-02-16T00:52:36.431Z,10.00
2023-02-16T00:55:15.445Z,7.33
2023-02-16T00:58:08.991Z,12.00
2023-02-16T01:00:41.115Z,8.00
2023-02-16T01:03:12.432Z,8.00
2023-02-16T01:05:39.412Z,9.67
2023-02-16T01:08:33.487Z,9.67
2023-02-16T01:11:10.290Z,8.00
2023-02-16T01:13:43.449Z,6.67
2023-02-16T01:16:20.674Z,8.67
2023-02-16T01:18:48.151Z,7.00
2023-02-16T01:21:15.219Z,4.33
2023-02-16T01:23:42.320Z,6.67
2023-02-16T01:26:16.746Z,6.33
2023-02-16T01:28:45.921Z,5.67
2023-02-16T01:31:14.562Z,7.00
2023-02-16T01:33:43.264Z,5.67
2023-02-16T01:36:34.262Z,8.00
2023-02-16T01:39:02.451Z,6.33
2023-02-16T01:42:11.991Z,2.00
2023-02-16T01:44:57.557Z,8.67
2023-02-16T01:47:47.852Z,15.00
2023-02-16T01:50:28.151Z,7.00
2023-02-16T01:53:03.125Z,15.00
2023-02-16T01:55:31.942Z,11.67
2023-02-16T01:58:05.875Z,6.33
2023-02-16T02:00:52.771Z,7.00
2023-02-16T02:03:48.599Z,15.00
2023-02-16T02:06:23.902Z,4.00
2023-02-16T02:09:18.390Z,6.33
2023-02-16T02:12:37.296Z,5.00
2023-02-16T02:15:25.265Z,21.67
2023-02-16T02:18:06.987Z,38.33
2023-02-16T02:21:47.572Z,32.00
2023-02-16T02:24:40.325Z,22.00
2023-02-16T02:27:33.221Z,20.33
2023-02-16T02:30:33.846Z,16.00
2023-02-16T02:33:23.410Z,13.00
2023-02-16T02:36:07.897Z,30.33
2023-02-16T02:38:51.164Z,36.00
2023-02-16T02:41:18.050Z,57.33
2023-02-16T02:44:13.249Z,47.67
2023-02-16T02:46:40.329Z,37.00
2023-02-16T02:49:07.340Z,29.33
2023-02-16T02:51:34.340Z,21.67
2023-02-16T02:54:19.639Z,23.33
2023-02-16T02:57:33.253Z,17.33
2023-02-16T03:00:44.215Z,15.67
2023-02-16T03:03:17.289Z,13.00
2023-02-16T03:05:53.532Z,22.00
2023-02-16T03:08:24.284Z,14.00
2023-02-16T03:11:23.676Z,12.67
2023-02-16T03:13:59.677Z,6.33
2023-02-16T03:16:36.238Z,5.00
2023-02-16T03:19:23.699Z,5.67
2023-02-16T03:22:09.729Z,7.67
2023-02-16T03:24:55.399Z,7.67
2023-02-16T03:27:45.964Z,2.00
2023-02-16T03:30:13.998Z,2.00
2023-02-16T03:32:41.848Z,7.33
2023-02-16T03:35:09.015Z,4.33
2023-02-16T03:37:36.106Z,7.00
2023-02-16T03:40:22.741Z,10.67
2023-02-16T03:42:50.984Z,6.33
2023-02-16T03:45:18.988Z,4.67
2023-02-16T03:47:46.065Z,4.67
2023-02-16T03:50:13.086Z,5.00
2023-02-16T03:52:40.028Z,10.00
2023-02-16T03:55:07.110Z,8.67
2023-02-16T03:57:34.103Z,7.33
2023-02-16T04:00:02.511Z,8.00
2023-02-16T04:02:29.910Z,7.00
2023-02-16T04:04:56.874Z,4.00
2023-02-16T04:07:23.944Z,7.00
2023-02-16T04:09:50.850Z,9.67
2023-02-16T04:12:36.509Z,11.33
2023-02-16T04:15:14.878Z,21.00
2023-02-16T04:17:41.836Z,20.00
2023-02-16T04:20:12.122Z,21.33
2023-02-16T04:22:39.018Z,16.33
2023-02-16T04:25:06.843Z,16.33
2023-02-16T04:27:33.918Z,12.33
2023-02-16T04:30:00.915Z,14.67
2023-02-16T04:32:27.901Z,18.00
2023-02-16T04:34:54.879Z,10.33
2023-02-16T04:37:21.845Z,14.00
2023-02-16T04:39:48.785Z,14.00
2023-02-16T04:42:15.893Z,13.67
2023-02-16T04:44:42.865Z,11.00
2023-02-16T04:47:09.750Z,12.67
2023-02-16T04:49:36.719Z,14.00
2023-02-16T04:52:04.302Z,10.00
2023-02-16T04:54:32.423Z,11.00
2023-02-16T04:57:00.216Z,9.00
2023-02-16T04:59:27.344Z,24.00
2023-02-16T05:01:54.468Z,21.00
2023-02-16T05:04:21.517Z,20.33
2023-02-16T05:06:48.463Z,20.33
2023-02-16T05:09:15.438Z,33.67
2023-02-16T05:12:01.163Z,25.67
2023-02-16T05:14:45.218Z,26.00
2023-02-16T05:17:24.101Z,18.33
2023-02-16T05:19:53.703Z,18.00
2023-02-16T05:22:21.172Z,11.00
2023-02-16T05:24:49.054Z,9.00
2023-02-16T05:27:24.563Z,10.67
2023-02-16T05:29:51.535Z,6.67
2023-02-16T05:32:18.664Z,14.33
2023-02-16T05:34:45.915Z,9.67
2023-02-16T05:37:14.567Z,5.00
2023-02-16T05:39:41.623Z,8.00
2023-02-16T05:42:08.999Z,5.67
2023-02-16T05:44:36.673Z,8.00
2023-02-16T05:47:03.779Z,7.33
2023-02-16T05:49:30.897Z,9.67
2023-02-16T05:51:58.038Z,8.00
2023-02-16T05:54:25.024Z,15.00
2023-02-16T05:56:53.357Z,28.33
2023-02-16T05:59:20.607Z,22.00
2023-02-16T06:01:51.312Z,17.33
2023-02-16T06:04:20.220Z,7.67
2023-02-16T06:06:47.741Z,7.67
2023-02-16T06:09:15.200Z,11.00
2023-02-16T06:11:42.822Z,14.00
2023-02-16T06:14:15.768Z,9.00
2023-02-16T06:16:44.674Z,13.33
2023-02-16T06:19:12.810Z,12.67
2023-02-16T06:21:40.291Z,21.67
2023-02-16T06:24:08.651Z,19.00
2023-02-16T06:26:36.286Z,15.00
2023-02-16T06:29:03.636Z,12.00
2023-02-16T06:31:30.716Z,11.00
2023-02-16T06:33:57.901Z,13.00
2023-02-16T06:36:25.263Z,17.00
2023-02-16T06:38:52.396Z,11.00
2023-02-16T06:41:45.646Z,9.33
2023-02-16T06:44:15.520Z,21.00
2023-02-16T06:46:45.098Z,29.00
2023-02-16T06:49:14.445Z,19.33
2023-02-16T06:51:41.464Z,22.67
2023-02-16T06:54:08.441Z,31.33
2023-02-16T06:56:37.777Z,26.00
2023-02-16T06:59:05.006Z,31.33
2023-02-16T07:01:32.664Z,25.67
2023-02-16T07:03:59.564Z,29.33
2023-02-16T07:06:28.838Z,26.33
2023-02-16T07:08:56.273Z,26.67
2023-02-16T07:11:23.255Z,24.67
2023-02-16T07:13:50.673Z,29.00
2023-02-16T07:16:17.666Z,34.67
2023-02-16T07:18:46.408Z,23.67
2023-02-16T07:21:14.322Z,31.33
2023-02-16T07:23:41.293Z,25.67
2023-02-16T07:26:08.832Z,27.67
2023-02-16T07:28:36.078Z,24.00
2023-02-16T07:31:08.545Z,24.00
2023-02-16T07:33:35.859Z,38.67
2023-02-16T07:36:03.058Z,42.33
2023-02-16T07:38:31.009Z,37.00
2023-02-16T07:40:58.294Z,43.00
2023-02-16T07:43:25.699Z,24.67
2023-02-16T07:45:52.912Z,26.00
2023-02-16T07:48:20.223Z,27.67
2023-02-16T07:50:47.260Z,34.33
2023-02-16T07:53:14.210Z,33.67
2023-02-16T07:55:42.791Z,44.00
2023-02-16T07:58:09.951Z,41.33
2023-02-16T08:00:36.863Z,37.67
2023-02-16T08:03:04.605Z,52.00
2023-02-16T08:05:31.542Z,37.67
2023-02-16T08:07:58.475Z,50.67
2023-02-16T08:10:25.580Z,59.00
2023-02-16T08:12:52.678Z,58.33
2023-02-16T08:15:19.626Z,48.00
2023-02-16T08:17:46.546Z,47.67
2023-02-16T08:20:13.928Z,39.67
2023-02-16T08:22:40.848Z,48.33
2023-02-16T08:25:08.090Z,47.00
2023-02-16T08:27:35.972Z,48.67
2023-02-16T08:30:03.215Z,44.67
2023-02-16T08:32:30.513Z,53.33
2023-02-16T08:34:57.631Z,50.67
2023-02-16T08:37:25.258Z,45.33
2023-02-16T08:39:52.321Z,45.00
2023-02-16T08:42:19.323Z,44.25
2023-02-16T08:44:46.605Z,38.75
2023-02-16T08:47:14.068Z,36.00
2023-02-16T08:49:41.413Z,46.00
2023-02-16T08:52:08.373Z,54.00
2023-02-16T08:54:35.255Z,54.00
2023-02-16T08:57:03.255Z,48.00
2023-02-16T08:59:31.459Z,59.33
2023-02-16T09:01:59.611Z,43.50
2023-02-16T09:04:29.135Z,47.67
2023-02-16T09:06:58.251Z,45.50
2023-02-16T09:09:26.594Z,43.50
2023-02-16T09:11:53.571Z,48.50
2023-02-16T09:14:23.302Z,44.50
2023-02-16T09:16:50.602Z,43.75
2023-02-16T09:19:20.836Z,42.75
2023-02-16T09:21:50.996Z,38.00
2023-02-16T09:24:18.477Z,45.00
2023-02-16T09:26:45.475Z,51.25
2023-02-16T09:29:14.162Z,45.00
2023-02-16T09:31:44.539Z,46.75
2023-02-16T09:34:22.240Z,45.50
2023-02-16T09:36:50.106Z,53.50
2023-02-16T09:39:18.786Z,58.50
2023-02-16T09:42:05.309Z,52.75
2023-02-16T09:44:35.054Z,51.50
2023-02-16T09:47:05.347Z,49.75
2023-02-16T09:49:38.221Z,45.25
2023-02-16T09:52:27.389Z,44.00
2023-02-16T09:54:57.963Z,55.75
2023-02-16T09:57:58.878Z,48.00
2023-02-16T10:00:34.667Z,49.00
2023-02-16T10:03:35.205Z,51.25
2023-02-16T10:06:14.095Z,44.00
2023-02-16T10:09:00.694Z,45.50
2023-02-16T10:11:51.488Z,36.00
2023-02-16T10:14:21.454Z,34.00
2023-02-16T10:17:15.377Z,35.50
2023-02-16T10:20:13.434Z,29.00
2023-02-16T10:22:55.453Z,34.50
2023-02-16T10:25:34.402Z,40.50
2023-02-16T10:28:16.264Z,36.50
2023-02-16T10:30:57.581Z,38.25
2023-02-16T10:33:44.887Z,31.25
2023-02-16T10:36:35.256Z,29.25
2023-02-16T10:39:16.945Z,41.50
2023-02-16T10:41:50.111Z,32.50
2023-02-16T10:44:24.352Z,32.00
2023-02-16T10:47:04.267Z,44.75
2023-02-16T10:49:32.988Z,45.50
2023-02-16T10:52:03.084Z,33.75
2023-02-16T10:54:32.422Z,30.75
2023-02-16T10:57:01.216Z,30.25
2023-02-16T10:59:31.188Z,24.75
2023-02-16T11:02:00.192Z,26.50
2023-02-16T11:04:42.849Z,30.75
2023-02-16T11:07:19.082Z,29.50
2023-02-16T11:09:51.386Z,29.00
2023-02-16T11:12:34.320Z,32.00
2023-02-16T11:15:27.197Z,28.00
2023-02-16T11:17:58.233Z,34.75
2023-02-16T11:20:35.091Z,30.00
2023-02-16T11:23:33.110Z,37.50
2023-02-16T11:26:22.799Z,36.50
2023-02-16T11:28:50.985Z,28.25
2023-02-16T11:31:26.763Z,38.00
2023-02-16T11:34:01.359Z,42.25
2023-02-16T11:36:30.351Z,45.50
2023-02-16T11:39:00.717Z,41.50
2023-02-16T11:41:29.810Z,38.75
2023-02-16T11:43:58.138Z,40.50
2023-02-16T11:46:25.812Z,34.50
2023-02-16T11:48:53.188Z,29.50
2023-02-16T11:51:33.104Z,31.00
2023-02-16T11:54:07.961Z,29.75
2023-02-16T11:56:35.936Z,37.75
2023-02-16T11:59:14.797Z,49.75
2023-02-16T12:02:13.746Z,34.25
2023-02-16T12:05:12.773Z,46.25
2023-02-16T12:08:02.715Z,37.25
2023-02-16T12:10:35.513Z,34.50
2023-02-16T12:13:22.234Z,45.25
2023-02-16T12:16:01.900Z,41.75
2023-02-16T12:18:52.700Z,33.00
2023-02-16T12:21:29.678Z,30.75
2023-02-16T12:24:15.062Z,28.50
2023-02-16T12:26:57.093Z,42.75
2023-02-16T12:30:08.578Z,40.00
2023-02-16T12:32:35.522Z,53.25
2023-02-16T12:35:19.294Z,41.00
2023-02-16T12:38:11.228Z,36.50
2023-02-16T12:40:47.268Z,33.25
2023-02-16T12:43:39.257Z,47.75
2023-02-16T12:46:24.077Z,42.50
2023-02-16T12:49:24.749Z,41.75
2023-02-16T12:52:05.572Z,30.25
2023-02-16T12:54:49.828Z,49.00
2023-02-16T12:57:21.812Z,36.50
2023-02-16T12:59:56.804Z,35.75
2023-02-16T13:02:31.448Z,34.75
2023-02-16T13:05:13.940Z,38.25
2023-02-16T13:07:43.834Z,50.75
2023-02-16T13:10:44.598Z,40.25
2023-02-16T13:13:18.048Z,30.50
2023-02-16T13:15:51.399Z,32.00
2023-02-16T13:18:24.275Z,33.00
2023-02-16T13:20:55.957Z,37.75
2023-02-16T13:23:44.559Z,25.75
2023-02-16T13:26:23.325Z,30.00
2023-02-16T13:29:02.544Z,34.00
2023-02-16T13:31:57.270Z,33.00
2023-02-16T13:34:54.210Z,44.25
2023-02-16T13:37:55.670Z,33.00
2023-02-16T13:40:41.748Z,39.25
2023-02-16T13:43:31.048Z,28.25
2023-02-16T13:46:00.648Z,24.75
2023-02-16T13:48:38.333Z,33.50
2023-02-16T13:51:12.230Z,34.00
2023-02-16T13:53:42.716Z,48.00
2023-02-16T13:56:35.623Z,34.00
2023-02-16T13:59:17.715Z,31.25
2023-02-16T14:01:51.874Z,22.50
2023-02-16T14:04:27.438Z,23.75
2023-02-16T14:07:22.186Z,37.00
2023-02-16T14:09:49.813Z,44.50
2023-02-16T14:12:27.072Z,49.75
2023-02-16T14:14:53.917Z,32.25
2023-02-16T14:17:23.614Z,39.00
2023-02-16T14:20:12.047Z,33.25
2023-02-16T14:22:53.707Z,31.00
2023-02-16T14:25:40.519Z,39.75
2023-02-16T14:28:30.006Z,55.00
2023-02-16T14:31:01.087Z,47.75
2023-02-16T14:33:34.450Z,49.25
2023-02-16T14:36:01.321Z,39.00
2023-02-16T14:38:33.182Z,41.00
2023-02-16T14:41:02.529Z,31.75
2023-02-16T14:43:44.814Z,38.50
2023-02-16T14:46:32.806Z,29.75
2023-02-16T14:49:20.719Z,28.75
2023-02-16T14:51:57.163Z,30.50
2023-02-16T14:54:47.691Z,27.00
2023-02-16T14:57:33.648Z,22.75
2023-02-16T15:00:24.968Z,15.25
2023-02-16T15:03:18.062Z,18.00
2023-02-16T15:05:51.357Z,21.25
2023-02-16T15:08:24.144Z,26.00
2023-02-16T15:10:58.636Z,25.50
2023-02-16T15:13:30.922Z,24.00
2023-02-16T15:16:02.396Z,33.25
2023-02-16T15:18:37.783Z,41.25
2023-02-16T15:21:05.481Z,35.25
2023-02-16T15:23:35.842Z,31.75
2023-02-16T15:26:04.384Z,27.00
2023-02-16T15:28:37.591Z,30.00
2023-02-16T15:31:31.227Z,26.50
2023-02-16T15:34:01.829Z,25.00
2023-02-16T15:36:38.701Z,31.75
2023-02-16T15:39:14.396Z,31.50
2023-02-16T15:41:45.857Z,39.75
2023-02-16T15:44:35.763Z,46.50
2023-02-16T15:47:13.991Z,34.75
2023-02-16T15:49:41.470Z,33.75
2023-02-16T15:52:21.800Z,36.00
2023-02-16T15:54:50.217Z,33.00
2023-02-16T15:57:36.266Z,26.00
2023-02-16T16:00:08.795Z,31.25
2023-02-16T16:02:41.681Z,18.75
2023-02-16T16:05:22.198Z,17.50
2023-02-16T16:07:50.738Z,16.75
2023-02-16T16:10:24.906Z,15.25
2023-02-16T16:12:58.170Z,18.00
2023-02-16T16:15:27.191Z,17.25
2023-02-16T16:17:55.297Z,14.25
2023-02-16T16:20:29.692Z,21.00
2023-02-16T16:23:19.541Z,24.50
2023-02-16T16:25:48.818Z,20.25
2023-02-16T16:28:27.958Z,23.50
2023-02-16T16:31:13.859Z,40.75
2023-02-16T16:34:05.330Z,35.50
2023-02-16T16:36:37.142Z,48.25
2023-02-16T16:39:29.223Z,34.50
2023-02-16T16:42:01.752Z,39.50
2023-02-16T16:44:51.624Z,35.25
2023-02-16T16:47:40.145Z,35.50
2023-02-16T16:50:10.137Z,36.75
2023-02-16T16:52:45.993Z,36.25
2023-02-16T16:55:23.465Z,24.50
2023-02-16T16:57:53.317Z,32.25
2023-02-16T17:00:25.390Z,18.50
2023-02-16T17:02:52.718Z,21.00
2023-02-16T17:05:20.277Z,14.75
2023-02-16T17:07:49.440Z,16.25
2023-02-16T17:10:18.095Z,18.00
2023-02-16T17:12:47.497Z,12.00
2023-02-16T17:15:37.611Z,15.50
2023-02-16T17:18:06.178Z,11.50
2023-02-16T17:20:33.495Z,17.50
2023-02-16T17:23:04.880Z,17.25
2023-02-16T17:25:35.465Z,14.00
2023-02-16T17:28:03.135Z,22.00
2023-02-16T17:30:30.844Z,24.50
2023-02-16T17:32:57.853Z,28.00
2023-02-16T17:35:25.182Z,19.25
2023-02-16T17:37:52.264Z,19.25
2023-02-16T17:40:21.839Z,24.50
2023-02-16T17:42:50.257Z,18.75
2023-02-16T17:45:22.193Z,19.00
2023-02-16T17:47:52.728Z,23.00
2023-02-16T17:50:21.159Z,18.00
2023-02-16T17:52:48.111Z,13.25
2023-02-16T17:55:15.181Z,17.50
2023-02-16T17:57:42.363Z,19.75
2023-02-16T18:00:14.676Z,25.00
2023-02-16T18:02:42.956Z,28.00
2023-02-16T18:05:12.980Z,23.50
2023-02-16T18:07:40.538Z,18.25
2023-02-16T18:10:08.742Z,22.75
2023-02-16T18:12:39.132Z,20.50
2023-02-16T18:15:06.341Z,27.00
2023-02-16T18:17:33.542Z,23.00
2023-02-16T18:20:00.670Z,25.50
2023-02-16T18:22:27.763Z,28.50
2023-02-16T18:24:54.933Z,22.00
2023-02-16T18:27:22.051Z,14.25
2023-02-16T18:29:49.376Z,31.00
2023-02-16T18:32:16.527Z,23.50
2023-02-16T18:34:46.588Z,25.00
2023-02-16T18:37:16.411Z,18.75
2023-02-16T18:39:45.109Z,19.50
2023-02-16T18:42:12.238Z,19.25
2023-02-16T18:44:39.537Z,21.25
2023-02-16T18:47:06.901Z,26.50
2023-02-16T18:49:36.386Z,18.75
2023-02-16T18:52:03.723Z,24.00
2023-02-16T18:54:30.675Z,23.25
2023-02-16T18:56:57.587Z,17.50
2023-02-16T18:59:24.554Z,22.33
2023-02-16T19:01:56.460Z,17.00
2023-02-16T19:04:25.452Z,20.75
2023-02-16T19:06:58.440Z,19.00
2023-02-16T19:09:28.609Z,16.00
2023-02-16T19:11:55.766Z,25.00
2023-02-16T19:14:22.789Z,21.00
2023-02-16T19:16:49.734Z,24.25
2023-02-16T19:19:16.642Z,18.00
2023-02-16T19:21:44.618Z,20.00
2023-02-16T19:24:13.180Z,23.67
2023-02-16T19:26:40.761Z,25.67
2023-02-16T19:29:07.718Z,25.33
2023-02-16T19:31:35.781Z,28.67
2023-02-16T19:34:02.967Z,29.33
2023-02-16T19:36:32.257Z,23.67
2023-02-16T19:38:59.524Z,26.33
2023-02-16T19:41:36.296Z,25.67
2023-02-16T19:44:04.008Z,25.67
2023-02-16T19:46:31.782Z,32.67
2023-02-16T19:48:59.445Z,27.33
2023-02-16T19:51:27.846Z,34.67
2023-02-16T19:53:54.748Z,28.00
2023-02-16T19:56:24.862Z,34.67
2023-02-16T19:58:52.331Z,30.33
2023-02-16T20:01:22.208Z,29.67
2023-02-16T20:03:51.079Z,30.00
2023-02-16T20:06:21.671Z,25.00
2023-02-16T20:08:50.896Z,32.00
2023-02-16T20:11:20.006Z,28.33
2023-02-16T20:13:47.882Z,37.67
2023-02-16T20:16:16.745Z,40.33
2023-02-16T20:18:43.835Z,37.67
2023-02-16T20:21:23.553Z,35.33
2023-02-16T20:23:53.428Z,35.00
2023-02-16T20:26:24.013Z,28.00
2023-02-16T20:28:52.135Z,31.00
2023-02-16T20:31:29.741Z,31.67
2023-02-16T20:33:56.883Z,28.00
2023-02-16T20:36:23.907Z,29.67
2023-02-16T20:38:51.011Z,32.00
2023-02-16T20:41:19.975Z,29.00
2023-02-16T20:43:47.462Z,30.00
2023-02-16T20:46:15.324Z,27.33
2023-02-16T20:48:42.303Z,22.33
2023-02-16T20:51:12.040Z,30.00
2023-02-16T20:53:39.948Z,15.33
2023-02-16T20:56:14.481Z,28.33
2023-02-16T20:58:42.706Z,30.33
2023-02-16T21:01:15.142Z,28.00
2023-02-16T21:03:42.396Z,31.33
2023-02-16T21:06:09.713Z,26.00
2023-02-16T21:08:36.714Z,28.00
2023-02-16T21:11:04.494Z,43.67
2023-02-16T21:13:31.559Z,36.67
2023-02-16T21:15:58.582Z,43.00
2023-02-16T21:18:25.950Z,33.00
2023-02-16T21:20:52.923Z,29.33
2023-02-16T21:23:19.889Z,39.33
2023-02-16T21:25:46.863Z,33.33
2023-02-16T21:28:13.804Z,39.00
2023-02-16T21:30:42.135Z,42.00
2023-02-16T21:33:10.013Z,51.33
2023-02-16T21:35:36.945Z,37.67
2023-02-16T21:38:04.760Z,45.00
2023-02-16T21:40:50.398Z,45.67
2023-02-16T21:43:17.573Z,48.00
2023-02-16T21:45:44.555Z,35.67
2023-02-16T21:48:30.690Z,43.67
2023-02-16T21:51:03.450Z,42.67
2023-02-16T21:53:31.036Z,33.33
2023-02-16T21:56:16.605Z,32.00
2023-02-16T21:58:44.327Z,35.00
2023-02-16T22:01:11.595Z,36.33
2023-02-16T22:03:38.888Z,38.33
2023-02-16T22:06:08.204Z,39.00
2023-02-16T22:08:38.188Z,47.33
2023-02-16T22:11:10.926Z,28.00
2023-02-16T22:13:39.076Z,37.67
2023-02-16T22:16:16.821Z,31.33
2023-02-16T22:18:44.912Z,28.33
2023-02-16T22:21:12.621Z,19.67
2023-02-16T22:23:39.999Z,26.33
2023-02-16T22:26:08.186Z,23.67
2023-02-16T22:28:37.142Z,26.33
2023-02-16T22:31:08.893Z,26.67
2023-02-16T22:33:35.935Z,28.67
2023-02-16T22:36:14.002Z,24.33
2023-02-16T22:38:42.533Z,15.00
2023-02-16T22:41:11.695Z,16.00
2023-02-16T22:43:39.869Z,15.00
2023-02-16T22:46:09.572Z,17.67
2023-02-16T22:48:36.652Z,19.00
2023-02-16T22:51:08.629Z,15.33
2023-02-16T22:53:36.041Z,13.00
2023-02-16T22:56:06.310Z,13.00
2023-02-16T22:58:34.030Z,11.67
2023-02-16T23:01:01.109Z,15.33
2023-02-16T23:03:29.263Z,10.33
2023-02-16T23:05:56.710Z,9.00
2023-02-16T23:08:23.754Z,13.00
2023-02-16T23:11:02.718Z,12.33
2023-02-16T23:13:32.031Z,15.00
2023-02-16T23:16:05.455Z,8.00
2023-02-16T23:18:32.777Z,11.33
2023-02-16T23:21:11.708Z,10.67
2023-02-16T23:23:38.603Z,15.00
2023-02-16T23:26:06.686Z,12.00
2023-02-16T23:28:35.616Z,18.00
2023-02-16T23:31:02.843Z,20.33
2023-02-16T23:33:29.770Z,17.00
2023-02-16T23:35:56.778Z,19.67
2023-02-16T23:38:23.789Z,11.33
2023-02-16T23:41:01.607Z,18.00
2023-02-16T23:43:28.738Z,18.67
2023-02-16T23:45:56.219Z,12.67
2023-02-16T23:48:23.818Z,16.33
2023-02-16T23:50:51.763Z,14.33
2023-02-16T23:53:20.141Z,20.67
2023-02-16T23:56:06.667Z,22.67
2023-02-16T23:58:37.195Z,22.00
